Time;durP1;ratioP1;P1;durP2;ratioP2;P2;SDS_P1;SDS_P2;PMS_P1;PMS_P2;Temp;Humidity;BMP_temperature;BMP_pressure;BME280_temperature;BME280_humidity;BME280_pressure;Samples;Min_cycle;Max_cycle;Signal;HPM_P1;HPM_P2
2023/12/16 00:01:21;;;;;;;8.95;5.65;;;7.00;99.90;;;;;;4976991;28;20106;-74
2023/12/16 00:03:47;;;;;;;7.13;5.55;;;7.00;99.90;;;;;;4983026;28;20077;-73
2023/12/16 00:06:13;;;;;;;9.93;5.35;;;7.00;99.90;;;;;;4981042;28;20079;-73
2023/12/16 00:08:39;;;;;;;6.50;4.88;;;7.00;99.90;;;;;;4981536;28;20090;-74
2023/12/16 00:11:05;;;;;;;13.68;5.38;;;7.00;99.90;;;;;;4981576;28;20050;-73
2023/12/16 00:13:30;;;;;;;11.38;5.97;;;7.00;99.90;;;;;;4980293;28;20074;-73
2023/12/16 00:15:56;;;;;;;12.38;5.45;;;7.00;99.90;;;;;;4981166;28;20057;-73
2023/12/16 00:18:22;;;;;;;7.82;5.00;;;7.00;99.90;;;;;;5012396;28;20096;-73
2023/12/16 00:20:48;;;;;;;5.38;4.65;;;7.00;99.90;;;;;;4997237;28;20093;-74
2023/12/16 00:23:14;;;;;;;6.60;5.03;;;7.00;99.90;;;;;;4996526;28;20066;-73
2023/12/16 00:25:39;;;;;;;5.57;4.53;;;7.00;99.90;;;;;;4981175;28;20046;-73
2023/12/16 00:28:05;;;;;;;6.30;5.07;;;7.00;99.90;;;;;;4997524;28;20039;-73
2023/12/16 00:30:30;;;;;;;9.98;5.22;;;7.10;99.90;;;;;;4979566;28;20089;-73
2023/12/16 00:32:58;;;;;;;5.97;4.68;;;7.00;99.90;;;;;;5013379;28;20045;-73
2023/12/16 00:35:24;;;;;;;10.93;5.75;;;7.00;99.90;;;;;;4979799;28;20055;-74
2023/12/16 00:37:50;;;;;;;5.88;4.18;;;7.10;99.90;;;;;;4997114;28;20039;-74
2023/12/16 00:40:15;;;;;;;8.38;4.47;;;7.10;99.90;;;;;;4996853;28;20466;-73
2023/12/16 00:42:41;;;;;;;8.20;4.32;;;7.10;99.90;;;;;;4980905;28;20055;-75
2023/12/16 00:45:07;;;;;;;10.80;5.00;;;7.10;99.90;;;;;;4979911;28;20627;-74
2023/12/16 00:47:33;;;;;;;8.05;3.92;;;7.10;99.90;;;;;;5011125;28;20043;-73
2023/12/16 00:49:58;;;;;;;5.65;4.35;;;7.00;99.90;;;;;;4997101;28;20043;-74
2023/12/16 00:52:24;;;;;;;7.28;3.47;;;7.10;99.90;;;;;;4963434;28;20047;-75
2023/12/16 00:54:51;;;;;;;6.32;3.75;;;7.10;99.90;;;;;;4984623;28;20078;-73
2023/12/16 00:57:16;;;;;;;7.88;4.15;;;7.20;99.90;;;;;;4980157;28;20108;-74
2023/12/16 00:59:42;;;;;;;5.93;4.00;;;7.10;99.90;;;;;;4996647;28;20514;-74
2023/12/16 01:02:08;;;;;;;5.18;3.75;;;7.20;99.90;;;;;;4995953;28;20062;-73
2023/12/16 01:04:33;;;;;;;5.97;3.80;;;7.20;99.90;;;;;;4963794;28;20051;-73
2023/12/16 01:06:59;;;;;;;8.55;4.30;;;7.20;99.90;;;;;;4996816;28;20424;-73
2023/12/16 01:09:25;;;;;;;6.55;3.85;;;7.10;99.90;;;;;;4978838;28;20043;-73
2023/12/16 01:11:51;;;;;;;4.35;3.60;;;7.10;99.90;;;;;;4980827;28;20043;-74
2023/12/16 01:14:16;;;;;;;6.53;4.03;;;7.10;99.90;;;;;;4985221;28;20077;-73
2023/12/16 01:16:42;;;;;;;5.68;3.50;;;7.00;99.90;;;;;;4980700;28;20387;-73
2023/12/16 01:19:08;;;;;;;9.02;3.80;;;7.00;99.90;;;;;;4995645;28;20039;-74
2023/12/16 01:21:43;;;;;;;8.45;4.50;;;7.00;99.90;;;;;;4996083;28;20134;-75
2023/12/16 01:24:09;;;;;;;4.88;4.03;;;6.90;99.90;;;;;;4996272;28;20099;-75
2023/12/16 01:26:34;;;;;;;6.10;4.53;;;6.80;99.90;;;;;;4980660;28;20047;-74
2023/12/16 01:29:00;;;;;;;6.90;4.22;;;6.60;99.90;;;;;;4980727;28;20058;-74
2023/12/16 01:31:26;;;;;;;4.95;4.15;;;6.70;99.90;;;;;;4978984;28;20465;-75
2023/12/16 01:33:52;;;;;;;4.95;4.07;;;6.60;99.90;;;;;;4980250;28;20047;-73
2023/12/16 01:36:19;;;;;;;7.07;5.22;;;6.60;99.90;;;;;;4979971;28;20049;-74
2023/12/16 01:38:45;;;;;;;4.68;4.28;;;6.60;99.90;;;;;;4979135;28;20050;-74
2023/12/16 01:41:11;;;;;;;5.80;4.75;;;6.60;99.90;;;;;;4996312;28;20046;-73
2023/12/16 01:43:36;;;;;;;8.15;4.57;;;6.60;99.90;;;;;;4994792;28;20047;-74
2023/12/16 01:46:04;;;;;;;4.78;4.30;;;6.60;99.90;;;;;;4979738;28;20506;-74
2023/12/16 01:48:30;;;;;;;9.40;4.20;;;6.50;99.90;;;;;;5011491;28;20071;-73
2023/12/16 01:50:57;;;;;;;5.68;5.03;;;6.50;99.90;;;;;;4963748;28;20047;-73
2023/12/16 01:53:23;;;;;;;5.35;3.83;;;6.50;99.90;;;;;;4978724;28;20054;-73
2023/12/16 01:55:48;;;;;;;6.95;4.50;;;6.50;99.90;;;;;;5011786;28;20051;-73
2023/12/16 01:58:15;;;;;;;9.73;4.28;;;6.50;99.90;;;;;;5012288;28;20055;-72
2023/12/16 02:00:42;;;;;;;5.07;4.05;;;6.50;99.90;;;;;;4978617;28;20054;-73
2023/12/16 02:03:08;;;;;;;5.10;4.50;;;6.50;99.90;;;;;;5013057;28;20075;-73
2023/12/16 02:05:33;;;;;;;6.05;4.72;;;6.40;99.90;;;;;;4994859;28;20047;-73
2023/12/16 02:07:59;;;;;;;9.98;4.80;;;6.40;99.90;;;;;;4979936;28;20043;-73
2023/12/16 02:10:25;;;;;;;8.63;4.70;;;6.40;99.90;;;;;;4979323;28;20089;-74
2023/12/16 02:12:50;;;;;;;8.40;4.50;;;6.40;99.90;;;;;;4982650;28;20076;-76
2023/12/16 02:15:20;;;;;;;8.50;4.80;;;6.30;99.90;;;;;;4981793;28;20507;-73
2023/12/16 02:17:45;;;;;;;8.55;4.85;;;6.30;99.90;;;;;;4979025;28;20046;-74
2023/12/16 02:20:14;;;;;;;7.32;5.15;;;6.20;99.90;;;;;;4979648;28;20549;-73
2023/12/16 02:22:39;;;;;;;4.97;4.47;;;6.20;99.90;;;;;;4980124;28;20046;-74
2023/12/16 02:25:09;;;;;;;6.72;4.95;;;6.30;99.90;;;;;;4979385;28;20051;-75
2023/12/16 02:27:35;;;;;;;6.60;4.40;;;6.20;99.90;;;;;;5011733;28;20111;-74
2023/12/16 02:30:00;;;;;;;6.15;4.30;;;6.30;99.90;;;;;;4994870;28;20047;-73
2023/12/16 02:32:26;;;;;;;6.63;4.32;;;6.20;99.90;;;;;;4979895;28;20047;-74
2023/12/16 02:34:52;;;;;;;6.63;5.15;;;6.20;99.90;;;;;;4994691;28;20082;-73
2023/12/16 02:37:17;;;;;;;6.78;4.78;;;6.20;99.90;;;;;;4995909;28;20077;-74
2023/12/16 02:39:43;;;;;;;8.30;4.85;;;6.20;99.90;;;;;;4978297;28;20051;-74
2023/12/16 02:42:09;;;;;;;6.28;4.32;;;6.50;99.90;;;;;;4979499;28;20066;-74
2023/12/16 02:44:35;;;;;;;6.85;4.25;;;6.20;99.90;;;;;;4962188;28;20487;-73
2023/12/16 02:47:00;;;;;;;6.72;4.95;;;6.20;99.90;;;;;;4995973;28;20046;-74
2023/12/16 02:49:28;;;;;;;5.95;4.63;;;6.20;99.90;;;;;;4979268;28;20054;-74
2023/12/16 02:51:54;;;;;;;9.07;5.03;;;6.20;99.90;;;;;;4994533;28;20376;-74
2023/12/16 02:54:19;;;;;;;6.40;4.15;;;6.10;99.90;;;;;;4999636;28;20076;-74
2023/12/16 02:56:45;;;;;;;6.97;4.72;;;6.10;99.90;;;;;;4977720;28;20438;-75
2023/12/16 02:59:11;;;;;;;7.20;4.63;;;6.10;99.90;;;;;;4995676;28;20046;-74
2023/12/16 03:01:36;;;;;;;9.10;4.97;;;6.10;99.90;;;;;;4978071;28;20047;-75
2023/12/16 03:04:02;;;;;;;6.68;4.55;;;6.00;99.90;;;;;;4978957;28;20043;-74
2023/12/16 03:06:28;;;;;;;7.15;4.57;;;6.00;99.90;;;;;;4995457;28;20098;-74
2023/12/16 03:08:53;;;;;;;5.90;4.35;;;6.00;99.90;;;;;;4978240;28;20054;-74
2023/12/16 03:11:19;;;;;;;7.72;5.05;;;6.00;99.90;;;;;;4979064;28;20043;-73
2023/12/16 03:13:45;;;;;;;7.25;4.50;;;6.00;99.90;;;;;;4993978;28;20046;-74
2023/12/16 03:16:10;;;;;;;5.50;4.22;;;6.00;99.90;;;;;;4978879;28;20039;-73
2023/12/16 03:18:36;;;;;;;5.60;4.20;;;6.00;99.90;;;;;;4977888;28;20062;-74
2023/12/16 03:21:05;;;;;;;6.45;4.30;;;6.00;99.90;;;;;;4995204;28;20638;-74
2023/12/16 03:23:30;;;;;;;7.13;5.00;;;6.00;99.90;;;;;;4962841;28;20061;-75
2023/12/16 03:25:56;;;;;;;8.55;5.18;;;6.00;99.90;;;;;;4977984;28;20047;-74
2023/12/16 03:28:22;;;;;;;6.60;4.50;;;6.00;99.90;;;;;;4979664;28;20078;-75
2023/12/16 03:30:47;;;;;;;8.52;4.65;;;6.00;99.90;;;;;;4993428;28;20406;-75
2023/12/16 03:33:13;;;;;;;8.45;4.32;;;5.90;99.90;;;;;;5011840;28;20101;-75
2023/12/16 03:35:39;;;;;;;7.22;4.68;;;5.90;99.90;;;;;;4993238;28;20051;-74
2023/12/16 03:38:04;;;;;;;8.70;5.15;;;5.80;99.90;;;;;;4997441;28;20081;-73
2023/12/16 03:40:30;;;;;;;8.95;5.97;;;5.80;99.90;;;;;;4982443;28;20107;-75
2023/12/16 03:42:56;;;;;;;6.50;4.68;;;5.70;99.90;;;;;;4981733;28;20039;-76
2023/12/16 03:45:23;;;;;;;5.88;5.28;;;5.70;99.90;;;;;;4966162;28;20054;-74
2023/12/16 03:47:49;;;;;;;5.88;4.72;;;5.60;99.90;;;;;;5013121;28;20039;-76
2023/12/16 03:50:14;;;;;;;6.80;5.00;;;5.70;99.90;;;;;;4981886;28;20081;-73
2023/12/16 03:52:40;;;;;;;6.90;4.75;;;5.60;99.90;;;;;;4997152;28;20061;-73
2023/12/16 03:55:06;;;;;;;5.32;4.78;;;5.70;99.90;;;;;;4988703;28;20553;-73
2023/12/16 03:57:33;;;;;;;6.97;4.75;;;5.70;99.90;;;;;;4997553;28;20106;-74
2023/12/16 03:59:59;;;;;;;9.57;5.00;;;5.70;99.90;;;;;;4949104;28;20494;-74
2023/12/16 04:02:25;;;;;;;6.15;4.60;;;5.70;99.90;;;;;;4998411;28;20383;-73
2023/12/16 04:04:51;;;;;;;7.72;5.65;;;5.70;99.90;;;;;;4980571;28;20081;-74
2023/12/16 04:07:17;;;;;;;8.57;5.20;;;5.70;99.90;;;;;;4981605;28;20050;-74
2023/12/16 04:09:42;;;;;;;7.90;5.32;;;5.70;99.90;;;;;;4996589;28;20058;-73
2023/12/16 04:12:09;;;;;;;7.70;5.50;;;5.70;99.90;;;;;;4981921;28;20389;-73
2023/12/16 04:14:41;;;;;;;6.93;5.00;;;5.70;99.90;;;;;;4996304;28;20065;-73
2023/12/16 04:17:06;;;;;;;10.40;6.05;;;5.70;99.90;;;;;;4981114;28;20456;-73
2023/12/16 04:19:32;;;;;;;10.73;4.97;;;5.70;99.90;;;;;;5014484;28;20049;-73
2023/12/16 04:21:58;;;;;;;6.55;4.82;;;5.70;99.90;;;;;;4980416;28;20038;-75
2023/12/16 04:24:23;;;;;;;5.72;5.07;;;5.70;99.90;;;;;;4981502;28;20076;-74
2023/12/16 04:26:49;;;;;;;5.78;5.00;;;5.70;99.90;;;;;;4980114;28;20046;-73
2023/12/16 04:29:15;;;;;;;8.57;5.75;;;5.70;99.90;;;;;;4981854;28;20058;-74
2023/12/16 04:31:41;;;;;;;7.35;6.15;;;5.70;99.90;;;;;;4978580;28;20055;-74
2023/12/16 04:34:07;;;;;;;8.02;5.10;;;5.70;99.90;;;;;;4979887;28;20104;-74
2023/12/16 04:36:33;;;;;;;7.90;5.55;;;5.60;99.90;;;;;;4980128;28;20047;-75
2023/12/16 04:38:59;;;;;;;7.57;5.80;;;5.70;99.90;;;;;;5011289;28;20436;-75
2023/12/16 04:41:25;;;;;;;9.07;5.50;;;5.70;99.90;;;;;;4997162;28;20039;-74
2023/12/16 04:43:53;;;;;;;5.55;5.15;;;5.70;99.90;;;;;;4980479;28;20086;-76
2023/12/16 04:46:22;;;;;;;6.50;5.78;;;5.70;99.90;;;;;;4981423;28;20038;-73
2023/12/16 04:48:48;;;;;;;9.48;5.55;;;5.70;99.90;;;;;;5012351;28;20096;-74
2023/12/16 04:51:14;;;;;;;11.50;6.13;;;5.70;99.90;;;;;;4997234;28;20043;-74
2023/12/16 04:53:40;;;;;;;9.55;6.53;;;5.70;99.90;;;;;;4997714;28;20046;-74
2023/12/16 04:56:06;;;;;;;9.02;6.97;;;5.60;99.90;;;;;;4972506;28;20050;-75
2023/12/16 04:58:32;;;;;;;10.77;6.47;;;5.60;99.90;;;;;;4981258;28;20099;-74
2023/12/16 05:00:58;;;;;;;9.95;6.50;;;5.70;99.90;;;;;;4995807;28;20156;-75
2023/12/16 05:03:24;;;;;;;11.15;6.45;;;5.70;99.90;;;;;;4981141;28;20081;-73
2023/12/16 05:05:49;;;;;;;8.32;5.88;;;5.70;99.90;;;;;;4980328;28;20445;-75
2023/12/16 05:08:15;;;;;;;10.95;6.70;;;5.70;99.90;;;;;;5000071;28;20048;-75
2023/12/16 05:10:42;;;;;;;8.75;5.45;;;5.80;99.90;;;;;;5065370;28;20026;-74
2023/12/16 05:13:10;;;;;;;6.63;5.88;;;5.80;99.90;;;;;;4985216;28;20061;-74
2023/12/16 05:15:39;;;;;;;10.32;7.20;;;5.80;99.90;;;;;;4987905;28;20107;-74
2023/12/16 05:18:06;;;;;;;6.93;6.28;;;5.80;99.90;;;;;;4979710;28;20110;-75
2023/12/16 05:20:32;;;;;;;10.90;6.45;;;5.70;99.90;;;;;;4980775;28;20069;-74
2023/12/16 05:22:59;;;;;;;9.25;6.47;;;5.70;99.90;;;;;;4979043;28;20077;-74
2023/12/16 05:25:27;;;;;;;11.35;6.68;;;5.60;99.90;;;;;;4996634;28;20093;-74
2023/12/16 05:27:53;;;;;;;12.65;6.18;;;5.60;99.90;;;;;;4980986;28;20061;-73
2023/12/16 05:30:19;;;;;;;8.52;7.07;;;5.70;99.90;;;;;;4979421;28;20078;-75
2023/12/16 05:32:44;;;;;;;9.10;7.43;;;5.70;99.90;;;;;;4980579;28;20054;-75
2023/12/16 05:35:10;;;;;;;8.02;6.75;;;5.70;99.90;;;;;;4978881;28;20050;-75
2023/12/16 05:37:36;;;;;;;8.73;7.88;;;5.70;99.90;;;;;;4980149;28;20058;-75
2023/12/16 05:40:03;;;;;;;8.73;6.50;;;5.70;99.90;;;;;;4979341;28;20100;-74
2023/12/16 05:42:29;;;;;;;8.80;6.20;;;5.70;99.90;;;;;;4980446;28;20046;-74
2023/12/16 05:44:55;;;;;;;14.20;6.60;;;5.70;99.90;;;;;;4964129;28;20129;-74
2023/12/16 05:47:20;;;;;;;9.65;6.80;;;5.70;99.90;;;;;;4979480;28;20053;-75
2023/12/16 05:49:46;;;;;;;12.77;6.63;;;5.80;99.90;;;;;;4980941;28;20047;-74
2023/12/16 05:52:12;;;;;;;9.85;7.78;;;5.70;99.90;;;;;;4978723;28;20046;-74
2023/12/16 05:54:38;;;;;;;8.38;6.07;;;5.70;99.90;;;;;;4963701;28;20051;-74
2023/12/16 05:57:04;;;;;;;9.63;6.15;;;5.70;99.90;;;;;;4978537;28;20050;-74
2023/12/16 05:59:30;;;;;;;11.82;7.35;;;5.70;99.90;;;;;;4995510;28;20050;-74
2023/12/16 06:01:56;;;;;;;7.00;6.30;;;5.60;99.90;;;;;;4980302;28;20046;-73
2023/12/16 06:04:22;;;;;;;10.05;6.93;;;5.60;99.90;;;;;;4979257;28;20098;-73
2023/12/16 06:06:48;;;;;;;8.02;7.35;;;5.60;99.90;;;;;;4996242;28;20058;-73
2023/12/16 06:09:14;;;;;;;10.60;7.88;;;5.60;99.90;;;;;;5011305;28;20047;-74
2023/12/16 06:11:40;;;;;;;11.20;7.40;;;5.50;99.90;;;;;;4980155;28;20098;-74
2023/12/16 06:14:05;;;;;;;10.00;7.22;;;5.50;99.90;;;;;;5003506;28;20047;-74
2023/12/16 06:16:31;;;;;;;15.77;8.88;;;5.50;99.90;;;;;;4980095;28;20050;-75
2023/12/16 06:18:57;;;;;;;13.02;8.25;;;5.40;99.90;;;;;;4978995;28;20051;-74
2023/12/16 06:21:23;;;;;;;10.57;8.05;;;5.50;99.90;;;;;;4979416;28;20031;-75
2023/12/16 06:23:49;;;;;;;12.43;8.23;;;5.40;99.90;;;;;;4980235;28;20084;-74
2023/12/16 06:26:14;;;;;;;9.20;8.27;;;5.40;99.90;;;;;;4978390;28;20043;-74
2023/12/16 06:28:40;;;;;;;9.55;7.78;;;5.40;99.90;;;;;;4979749;28;20050;-73
2023/12/16 06:31:06;;;;;;;9.10;7.82;;;5.40;99.90;;;;;;4977648;28;20252;-74
2023/12/16 06:33:31;;;;;;;11.57;7.55;;;5.40;99.90;;;;;;4979378;28;20429;-74
2023/12/16 06:35:57;;;;;;;11.18;9.02;;;5.40;99.90;;;;;;4978385;28;20051;-74
2023/12/16 06:38:22;;;;;;;13.90;8.65;;;5.40;99.90;;;;;;4980650;28;20106;-73
2023/12/16 06:40:48;;;;;;;9.20;8.23;;;5.50;99.90;;;;;;4979319;28;20046;-74
2023/12/16 06:43:14;;;;;;;9.63;8.05;;;5.40;99.90;;;;;;4994260;28;20070;-75
2023/12/16 06:45:40;;;;;;;10.75;8.90;;;5.40;99.90;;;;;;4979565;28;20042;-74
2023/12/16 06:48:06;;;;;;;11.00;9.27;;;5.40;99.90;;;;;;4978379;28;20056;-74
2023/12/16 06:50:31;;;;;;;11.55;8.30;;;5.40;99.90;;;;;;4979909;28;20050;-73
2023/12/16 06:52:57;;;;;;;10.10;9.10;;;5.40;99.90;;;;;;4978258;28;20057;-73
2023/12/16 06:55:23;;;;;;;11.20;9.10;;;5.40;99.90;;;;;;4979882;28;20055;-74
2023/12/16 06:57:49;;;;;;;11.73;9.35;;;5.40;99.90;;;;;;4994913;28;20078;-73
2023/12/16 07:00:15;;;;;;;12.57;9.50;;;5.40;99.90;;;;;;4980671;28;20049;-74
2023/12/16 07:02:42;;;;;;;10.80;9.10;;;5.40;99.90;;;;;;4995149;28;20047;-75
2023/12/16 07:05:10;;;;;;;12.48;8.98;;;5.40;99.90;;;;;;5010201;28;20061;-74
2023/12/16 07:07:36;;;;;;;14.95;9.65;;;5.40;99.90;;;;;;4962829;28;20070;-74
2023/12/16 07:10:03;;;;;;;13.02;9.75;;;5.40;99.90;;;;;;5010583;28;20039;-74
2023/12/16 07:12:29;;;;;;;13.25;9.05;;;5.40;99.90;;;;;;4983018;28;20046;-75
2023/12/16 07:14:55;;;;;;;13.57;10.00;;;5.40;99.90;;;;;;4969053;28;20180;-73
2023/12/16 07:17:20;;;;;;;11.82;10.60;;;5.40;99.90;;;;;;4981911;28;20050;-74
2023/12/16 07:19:46;;;;;;;10.75;9.75;;;5.50;99.90;;;;;;4982734;28;20133;-74
2023/12/16 07:22:16;;;;;;;11.60;10.20;;;5.50;99.90;;;;;;4964975;28;20096;-73
2023/12/16 07:24:42;;;;;;;10.30;9.45;;;5.60;99.90;;;;;;5014980;28;20039;-74
2023/12/16 07:27:07;;;;;;;10.77;9.65;;;5.70;99.90;;;;;;4965088;28;20057;-74
2023/12/16 07:29:34;;;;;;;11.40;10.13;;;5.70;99.90;;;;;;4998541;28;20042;-74
2023/12/16 07:32:00;;;;;;;10.82;9.65;;;5.70;99.90;;;;;;4982770;28;20176;-74
2023/12/16 07:34:26;;;;;;;10.10;9.20;;;5.80;99.90;;;;;;5013911;28;20055;-73
2023/12/16 07:36:52;;;;;;;12.38;10.00;;;5.80;99.90;;;;;;5014562;28;20051;-74
2023/12/16 07:39:18;;;;;;;11.52;9.10;;;5.80;99.90;;;;;;4965041;28;20043;-73
2023/12/16 07:41:44;;;;;;;11.80;9.32;;;5.90;99.90;;;;;;4982846;28;20197;-75
2023/12/16 07:44:11;;;;;;;11.27;9.43;;;5.90;99.90;;;;;;4981028;28;20074;-74
2023/12/16 07:46:40;;;;;;;13.85;8.85;;;5.90;99.90;;;;;;4985612;28;20047;-73
2023/12/16 07:49:07;;;;;;;15.75;10.32;;;5.90;99.90;;;;;;4980679;28;20082;-74
2023/12/16 07:51:33;;;;;;;12.57;9.35;;;5.90;99.90;;;;;;4981010;28;20039;-73
2023/12/16 07:53:58;;;;;;;13.63;8.80;;;6.00;99.90;;;;;;4984005;28;20072;-73
2023/12/16 07:56:28;;;;;;;14.48;9.85;;;6.00;99.90;;;;;;4987311;28;20078;-73
2023/12/16 07:58:54;;;;;;;12.73;9.20;;;5.90;99.90;;;;;;4982343;28;20544;-75
2023/12/16 08:01:20;;;;;;;14.80;10.27;;;5.90;99.90;;;;;;4980147;28;20047;-75
2023/12/16 08:03:47;;;;;;;12.77;9.63;;;6.00;99.90;;;;;;4965936;28;20308;-73
2023/12/16 08:06:16;;;;;;;11.25;9.57;;;6.00;99.90;;;;;;5013671;28;20062;-73
2023/12/16 08:08:43;;;;;;;11.40;10.23;;;6.00;99.90;;;;;;4980674;28;20050;-74
2023/12/16 08:11:09;;;;;;;15.48;10.00;;;6.00;99.90;;;;;;5014548;28;20049;-76
2023/12/16 08:13:36;;;;;;;14.82;10.63;;;6.00;99.90;;;;;;4980093;28;20101;-74
2023/12/16 08:16:04;;;;;;;11.43;10.10;;;6.00;99.90;;;;;;4981529;28;20050;-77
2023/12/16 08:18:31;;;;;;;11.57;10.40;;;6.00;99.90;;;;;;5012947;28;20096;-75
2023/12/16 08:20:57;;;;;;;14.27;10.57;;;6.00;99.90;;;;;;4981440;28;20057;-75
2023/12/16 08:23:22;;;;;;;11.70;10.68;;;6.10;99.90;;;;;;4980479;28;20278;-76
2023/12/16 08:25:48;;;;;;;14.05;10.85;;;6.00;99.90;;;;;;4980323;28;20065;-76
2023/12/16 08:28:14;;;;;;;17.13;10.77;;;6.10;99.90;;;;;;5050053;28;20046;-76
2023/12/16 08:30:40;;;;;;;13.75;10.38;;;6.10;99.90;;;;;;4952200;28;20061;-77
2023/12/16 08:33:06;;;;;;;14.65;11.77;;;6.10;99.90;;;;;;5083740;28;20049;-75
2023/12/16 08:35:31;;;;;;;13.75;11.35;;;6.10;99.90;;;;;;4989258;28;20046;-74
2023/12/16 08:37:57;;;;;;;13.43;10.30;;;6.10;99.90;;;;;;4981460;28;20035;-75
2023/12/16 08:40:27;;;;;;;16.05;10.82;;;6.20;99.90;;;;;;4996915;28;20035;-76
2023/12/16 08:42:52;;;;;;;17.80;12.18;;;6.20;99.90;;;;;;4980663;28;20558;-77
2023/12/16 08:45:18;;;;;;;15.27;11.00;;;6.20;99.90;;;;;;4964934;28;20461;-75
2023/12/16 08:47:44;;;;;;;13.65;11.07;;;6.20;99.90;;;;;;4979385;28;20038;-75
2023/12/16 08:50:10;;;;;;;12.63;10.52;;;6.20;99.90;;;;;;4981004;28;20145;-75
2023/12/16 08:52:36;;;;;;;16.90;12.30;;;6.20;99.90;;;;;;4963581;28;20046;-76
2023/12/16 08:55:04;;;;;;;11.55;10.38;;;6.30;99.90;;;;;;4975541;28;20046;-74
2023/12/16 08:57:30;;;;;;;15.70;12.07;;;6.30;99.90;;;;;;4980222;28;20096;-75
2023/12/16 08:59:55;;;;;;;14.48;11.93;;;6.30;99.90;;;;;;4963816;28;20051;-74
2023/12/16 09:02:21;;;;;;;12.10;10.70;;;6.40;99.90;;;;;;4980351;28;20047;-75
2023/12/16 09:04:48;;;;;;;15.00;11.45;;;6.40;99.90;;;;;;4996399;28;20084;-74
2023/12/16 09:07:13;;;;;;;13.93;11.20;;;6.40;99.90;;;;;;4980510;28;20047;-76
2023/12/16 09:09:39;;;;;;;17.20;15.32;;;6.50;99.90;;;;;;4979004;28;20091;-73
2023/12/16 09:12:06;;;;;;;17.25;12.80;;;6.50;99.90;;;;;;4977152;28;20047;-76
2023/12/16 09:14:32;;;;;;;17.48;12.13;;;6.60;99.90;;;;;;4981100;28;20042;-74
2023/12/16 09:16:58;;;;;;;15.60;13.32;;;6.60;99.90;;;;;;4961648;28;20085;-75
2023/12/16 09:19:25;;;;;;;13.45;11.73;;;6.60;99.90;;;;;;4983999;28;20049;-76
2023/12/16 09:21:51;;;;;;;15.13;13.32;;;6.70;99.90;;;;;;4986991;28;20077;-75
2023/12/16 09:24:17;;;;;;;17.20;11.75;;;6.60;99.90;;;;;;4979719;28;20564;-77
2023/12/16 09:26:43;;;;;;;16.13;13.35;;;6.70;99.90;;;;;;4977829;28;20058;-76
2023/12/16 09:29:11;;;;;;;16.90;14.45;;;6.70;99.90;;;;;;4980149;28;20066;-74
2023/12/16 09:31:37;;;;;;;15.70;12.05;;;6.70;99.90;;;;;;5023268;28;20082;-76
2023/12/16 09:34:03;;;;;;;14.55;12.07;;;6.70;99.90;;;;;;5053827;28;20026;-76
2023/12/16 09:36:30;;;;;;;17.50;11.10;;;6.70;99.90;;;;;;5032904;28;20069;-76
2023/12/16 09:38:57;;;;;;;15.45;10.68;;;6.70;99.90;;;;;;4978406;28;20066;-73
2023/12/16 09:41:37;;;;;;;15.77;10.45;;;6.70;99.90;;;;;;4964069;28;20068;-75
2023/12/16 09:44:05;;;;;;;16.67;11.00;;;6.70;99.90;;;;;;4976993;28;20046;-76
2023/12/16 09:46:33;;;;;;;22.80;12.73;;;6.70;99.90;;;;;;4978561;28;20039;-74
2023/12/16 09:49:02;;;;;;;12.57;11.38;;;6.70;99.90;;;;;;4977275;28;20047;-74
2023/12/16 09:51:28;;;;;;;14.02;11.90;;;6.70;99.90;;;;;;4946026;28;20057;-76
2023/12/16 09:53:54;;;;;;;14.82;13.13;;;6.70;99.90;;;;;;4978858;28;20035;-76
2023/12/16 09:56:21;;;;;;;17.73;13.75;;;6.70;99.90;;;;;;4961672;28;20076;-73
2023/12/16 09:58:51;;;;;;;13.60;12.27;;;6.70;99.90;;;;;;4996191;28;20058;-75
2023/12/16 10:01:17;;;;;;;14.30;12.23;;;6.60;99.90;;;;;;4993871;28;20047;-75
2023/12/16 10:03:46;;;;;;;13.70;12.25;;;6.60;99.90;;;;;;4962736;28;20086;-75
2023/12/16 10:06:12;;;;;;;14.88;13.50;;;6.60;99.90;;;;;;5046922;28;20051;-73
2023/12/16 10:08:40;;;;;;;15.38;13.77;;;6.50;99.90;;;;;;4978354;28;20040;-76
2023/12/16 10:11:06;;;;;;;17.00;14.55;;;6.60;99.90;;;;;;4963454;28;20047;-76
2023/12/16 10:13:33;;;;;;;14.23;12.93;;;6.50;99.90;;;;;;4978745;28;20054;-76
2023/12/16 10:16:00;;;;;;;20.35;13.93;;;6.50;99.90;;;;;;4991446;28;20120;-74
2023/12/16 10:18:27;;;;;;;15.95;14.55;;;6.50;99.90;;;;;;4981287;28;20075;-74
2023/12/16 10:20:55;;;;;;;16.67;15.00;;;6.50;99.90;;;;;;4998706;28;20129;-76
2023/12/16 10:23:23;;;;;;;19.75;17.80;;;6.50;99.90;;;;;;4998969;28;20055;-74
2023/12/16 10:25:49;;;;;;;21.98;17.65;;;6.60;99.90;;;;;;4981696;28;20104;-75
2023/12/16 10:28:15;;;;;;;21.85;18.13;;;6.60;99.90;;;;;;4968718;28;20139;-74
2023/12/16 10:30:42;;;;;;;20.10;17.25;;;6.60;99.90;;;;;;4966706;28;20243;-75
2023/12/16 10:33:08;;;;;;;20.88;18.73;;;6.60;99.90;;;;;;5064371;28;20041;-77
2023/12/16 10:35:36;;;;;;;20.55;16.73;;;6.60;99.90;;;;;;5079552;28;20507;-75
2023/12/16 10:38:02;;;;;;;30.80;17.02;;;6.60;99.90;;;;;;5081234;28;20052;-75
2023/12/16 10:40:28;;;;;;;20.33;18.35;;;6.60;99.90;;;;;;5006418;28;20054;-75
2023/12/16 10:42:54;;;;;;;25.77;23.48;;;6.60;99.90;;;;;;4978243;28;20056;-74
2023/12/16 10:45:20;;;;;;;26.98;19.42;;;6.60;99.90;;;;;;4962817;28;20039;-75
2023/12/16 10:47:48;;;;;;;23.83;21.35;;;6.70;99.90;;;;;;4978274;28;20106;-76
2023/12/16 10:50:15;;;;;;;23.92;21.63;;;6.60;99.90;;;;;;4978908;28;20419;-75
2023/12/16 10:52:56;;;;;;;24.17;19.98;;;6.70;99.90;;;;;;4977540;28;20098;-76
2023/12/16 10:55:40;;;;;;;25.10;22.58;;;6.70;99.90;;;;;;4976551;28;20050;-74
2023/12/16 10:58:07;;;;;;;24.77;22.25;;;6.70;99.90;;;;;;5045416;28;20335;-74
2023/12/16 11:00:37;;;;;;;26.20;23.38;;;6.70;99.90;;;;;;4976879;28;20104;-74
2023/12/16 11:03:09;;;;;;;28.75;25.90;;;6.70;99.90;;;;;;4978343;28;20076;-76
2023/12/16 11:05:46;;;;;;;28.27;25.38;;;6.80;99.90;;;;;;4939528;28;20062;-74
2023/12/16 11:08:12;;;;;;;;;;;6.70;99.90;;;;;;5027367;28;20457;-74
2023/12/16 11:10:38;;;;;;;34.53;31.52;;;6.80;99.90;;;;;;4958736;29;19972;-75
2023/12/16 11:13:04;;;;;;;34.22;31.17;;;6.70;99.90;;;;;;4967179;28;20037;-75
2023/12/16 11:15:32;;;;;;;31.40;28.40;;;6.80;99.90;;;;;;5056902;28;20059;-75
2023/12/16 11:18:00;;;;;;;30.27;27.58;;;6.80;99.90;;;;;;5058527;28;20227;-75
2023/12/16 11:20:50;;;;;;;35.08;31.50;;;6.80;99.90;;;;;;5060393;28;20053;-75
2023/12/16 11:23:16;;;;;;;30.38;27.58;;;6.80;99.90;;;;;;5059923;28;20044;-75
2023/12/16 11:25:42;;;;;;;35.53;29.75;;;6.80;99.90;;;;;;5042773;28;20077;-75
2023/12/16 11:28:12;;;;;;;31.27;28.25;;;6.90;99.90;;;;;;5022489;28;20047;-75
2023/12/16 11:30:40;;;;;;;33.22;30.13;;;6.90;99.90;;;;;;4960491;28;20066;-76
2023/12/16 11:33:05;;;;;;;34.17;31.05;;;7.00;99.90;;;;;;5060221;28;20071;-75
2023/12/16 11:35:45;;;;;;;34.65;31.38;;;7.00;99.90;;;;;;5032955;28;20067;-75
2023/12/16 11:38:42;;;;;;;32.55;28.80;;;7.00;99.90;;;;;;4938369;29;20062;-76
2023/12/16 11:41:10;;;;;;;32.92;29.73;;;7.00;99.90;;;;;;4959033;28;20062;-76
2023/12/16 11:43:53;;;;;;;40.92;37.25;;;7.00;99.90;;;;;;4941915;29;20051;-75
2023/12/16 11:46:37;;;;;;;34.50;30.75;;;7.10;99.90;;;;;;4959520;29;20434;-75
2023/12/16 11:49:07;;;;;;;34.65;31.02;;;7.10;99.90;;;;;;4958545;29;20115;-74
2023/12/16 11:51:34;;;;;;;35.13;31.95;;;7.10;99.90;;;;;;4942719;29;20131;-76
2023/12/16 11:54:00;;;;;;;36.35;32.65;;;7.10;99.90;;;;;;4942840;28;20133;-75
2023/12/16 11:56:26;;;;;;;39.00;34.90;;;7.10;99.90;;;;;;5058372;28;20049;-75
2023/12/16 11:58:59;;;;;;;39.25;35.30;;;7.20;99.90;;;;;;5063499;28;20485;-75
2023/12/16 12:01:31;;;;;;;41.35;37.75;;;7.20;99.90;;;;;;5046287;28;20183;-75
2023/12/16 12:03:57;;;;;;;37.85;34.83;;;7.20;99.90;;;;;;5060630;28;20052;-76
2023/12/16 12:06:24;;;;;;;43.55;40.17;;;7.20;99.90;;;;;;5063543;28;20226;-77
2023/12/16 12:08:50;;;;;;;39.47;35.63;;;7.20;99.90;;;;;;4946137;28;20493;-76
2023/12/16 12:11:17;;;;;;;40.05;36.47;;;7.30;99.90;;;;;;4962173;29;20153;-78
2023/12/16 12:13:44;;;;;;;40.33;36.70;;;7.30;99.90;;;;;;5013317;28;20052;-76
2023/12/16 12:16:12;;;;;;;41.30;37.83;;;7.30;99.90;;;;;;5049563;28;20474;-76
2023/12/16 12:18:39;;;;;;;39.40;35.80;;;7.40;99.90;;;;;;4960923;29;20169;-75
2023/12/16 12:21:10;;;;;;;40.47;36.63;;;7.40;99.90;;;;;;4961763;29;20044;-76
2023/12/16 12:23:40;;;;;;;41.35;38.00;;;7.40;99.90;;;;;;4957591;28;20051;-75
2023/12/16 12:26:06;;;;;;;41.42;37.88;;;7.40;99.90;;;;;;4949687;28;20087;-76
2023/12/16 12:28:33;;;;;;;40.75;37.83;;;7.30;99.90;;;;;;4947918;28;20046;-77
2023/12/16 12:31:07;;;;;;;40.85;37.53;;;7.40;99.90;;;;;;4960063;29;20055;-75
2023/12/16 12:33:34;;;;;;;44.13;40.70;;;7.40;99.90;;;;;;4961686;29;20107;-77
2023/12/16 12:36:00;;;;;;;42.53;39.28;;;7.40;99.90;;;;;;4961533;29;20083;-78
2023/12/16 12:38:28;;;;;;;40.53;37.55;;;7.40;99.90;;;;;;4945104;29;20047;-75
2023/12/16 12:41:04;;;;;;;38.83;35.83;;;7.40;99.90;;;;;;4945457;29;20043;-77
2023/12/16 12:43:31;;;;;;;38.37;35.43;;;7.40;99.90;;;;;;4960108;29;20093;-76
2023/12/16 12:46:16;;;;;;;37.80;34.55;;;7.40;99.90;;;;;;4961740;29;20047;-79